Time;durP1;ratioP1;P1;durP2;ratioP2;P2;SDS_P1;SDS_P2;PMS_P1;PMS_P2;Temp;Humidity;BMP_temperature;BMP_pressure;BME280_temperature;BME280_humidity;BME280_pressure;Samples;Min_cycle;Max_cycle;Signal;HPM_P1;HPM_P2
2022/05/03 00:02:06;;;;;;;0.40;0.30;;;;;;;12.27;57.13;100245.31;104180;1279;138478;-75
2022/05/03 00:04:45;;;;;;;0.40;0.30;;;;;;;12.22;57.18;100240.48;104127;1279;95173;-76
2022/05/03 00:07:55;;;;;;;0.40;0.40;;;;;;;12.25;57.04;100242.15;103925;1279;140551;-74
2022/05/03 00:10:40;;;;;;;0.40;0.30;;;;;;;12.24;57.28;100234.35;103795;1279;110498;-77
2022/05/03 00:13:12;;;;;;;0.40;0.30;;;;;;;12.16;57.54;100230.73;104016;1279;140507;-76
2022/05/03 00:15:40;;;;;;;0.40;0.30;;;;;;;12.13;57.25;100230.48;104149;1279;109090;-74
2022/05/03 00:18:08;;;;;;;0.40;0.30;;;;;;;12.19;57.13;100229.36;104020;1279;95158;-78
2022/05/03 00:20:36;;;;;;;0.40;0.30;;;;;;;12.22;56.66;100225.89;104002;1279;139877;-74
2022/05/03 00:23:04;;;;;;;0.40;0.30;;;;;;;12.24;56.70;100229.39;104089;1279;110121;-74
2022/05/03 00:25:32;;;;;;;0.40;0.30;;;;;;;12.32;56.26;100228.56;103796;1279;141087;-75
2022/05/03 00:28:00;;;;;;;0.40;0.30;;;;;;;12.35;56.13;100221.85;103806;1279;109458;-76
2022/05/03 00:30:28;;;;;;;0.40;0.30;;;;;;;12.42;55.67;100225.15;104060;1279;95231;-79
2022/05/03 00:32:56;;;;;;;0.40;0.30;;;;;;;12.49;55.64;100225.98;103998;1278;138821;-76
2022/05/03 00:35:24;;;;;;;0.40;0.40;;;;;;;12.46;55.74;100231.24;104040;1279;109261;-83
2022/05/03 00:37:52;;;;;;;0.50;0.40;;;;;;;12.41;55.96;100229.48;103974;1279;140574;-75
2022/05/03 00:40:21;;;;;;;0.40;0.30;;;;;;;12.43;55.71;100234.58;104098;1279;108840;-76
2022/05/03 00:43:13;;;;;;;0.40;0.40;;;;;;;12.42;55.35;100233.89;103942;1279;140717;-73
2022/05/03 00:45:47;;;;;;;0.40;0.30;;;;;;;12.38;55.28;100233.48;104076;1279;95142;-75
2022/05/03 00:48:32;;;;;;;0.40;0.30;;;;;;;12.45;55.08;100234.13;104103;1279;110175;-74
2022/05/03 00:51:12;;;;;;;0.40;0.30;;;;;;;12.48;54.69;100239.00;104057;1279;139746;-75
2022/05/03 00:53:47;;;;;;;0.40;0.40;;;;;;;12.42;55.13;100237.80;103860;1279;109993;-76
2022/05/03 00:56:50;;;;;;;0.40;0.30;;;;;;;12.32;55.18;100236.03;104028;1279;140199;-78
2022/05/03 00:59:27;;;;;;;0.40;0.30;;;;;;;12.29;55.21;100233.64;104127;1279;95138;-76
2022/05/03 01:02:07;;;;;;;0.40;0.40;;;;;;;12.36;54.97;100232.15;103973;1279;139441;-76
2022/05/03 01:04:42;;;;;;;0.40;0.30;;;;;;;12.33;54.96;100230.66;103761;1279;100250;-74
2022/05/03 01:07:09;;;;;;;0.40;0.30;;;;;;;12.25;55.13;100226.85;103925;1279;140259;-78
2022/05/03 01:09:42;;;;;;;0.40;0.40;;;;;;;12.18;55.45;100223.71;104101;1279;95245;-74
2022/05/03 01:12:39;;;;;;;0.40;0.40;;;;;;;12.09;55.54;100224.02;103797;1279;95162;-85
2022/05/03 01:15:09;;;;;;;0.40;0.30;;;;;;;12.10;55.84;100220.79;103959;1279;140271;-74
2022/05/03 01:17:43;;;;;;;0.40;0.30;;;;;;;12.16;55.79;100218.26;104092;1279;100095;-78
2022/05/03 01:20:15;;;;;;;0.40;0.30;;;;;;;12.19;55.79;100221.90;103963;1279;139853;-74
2022/05/03 01:23:25;;;;;;;0.40;0.30;;;;;;;12.18;55.84;100221.58;104043;1279;95873;-74
2022/05/03 01:26:12;;;;;;;0.50;0.40;;;;;;;12.21;55.71;100217.54;102901;1287;140194;-74
2022/05/03 01:29:01;;;;;;;0.40;0.30;;;;;;;12.20;55.65;100213.34;103045;1287;108613;-74
2022/05/03 01:31:29;;;;;;;0.40;0.40;;;;;;;12.23;55.54;100216.23;103650;1278;140057;-77
2022/05/03 01:34:01;;;;;;;0.40;0.30;;;;;;;12.32;55.11;100220.73;104084;1277;108284;-75
2022/05/03 01:36:52;;;;;;;0.40;0.30;;;;;;;12.33;55.02;100224.95;104311;1279;95362;-75
2022/05/03 01:39:34;;;;;;;0.40;0.40;;;;;;;12.29;55.05;100222.27;103711;1279;140136;-78
2022/05/03 01:42:21;;;;;;;0.40;0.30;;;;;;;12.23;55.23;100226.56;104146;1279;110166;-74
2022/05/03 01:45:07;;;;;;;0.40;0.30;;;;;;;12.28;54.97;100226.39;103987;1279;140786;-76
2022/05/03 01:47:52;;;;;;;0.40;0.30;;;;;;;12.35;54.57;100231.65;104082;1279;109840;-78
2022/05/03 01:50:38;;;;;;;0.40;0.30;;;;;;;12.35;54.51;100232.35;103704;1279;140563;-78
2022/05/03 01:53:19;;;;;;;0.40;0.30;;;;;;;12.34;53.98;100225.82;104102;1279;95260;-75
2022/05/03 01:56:24;;;;;;;0.40;0.30;;;;;;;12.31;53.81;100224.49;103909;1279;139415;-80
2022/05/03 01:59:20;;;;;;;0.40;0.30;;;;;;;12.33;53.71;100223.19;104084;1279;98673;-74
2022/05/03 02:02:09;;;;;;;0.40;0.30;;;;;;;12.31;53.56;100225.58;104012;1279;140187;-78
2022/05/03 02:05:01;;;;;;;0.40;0.40;;;;;;;12.30;53.65;100224.70;104052;1279;95245;-73
2022/05/03 02:07:58;;;;;;;0.40;0.30;;;;;;;12.27;53.69;100224.82;103960;1279;138631;-84
2022/05/03 02:10:44;;;;;;;0.40;0.30;;;;;;;12.26;53.98;100225.23;104053;1279;108699;-77
2022/05/03 02:14:43;;;;;;;0.40;0.30;;;;;;;12.26;53.91;100231.28;104016;1279;140297;-74
2022/05/03 02:16:28;;;;;;;0.40;0.30;;;;;;;12.30;53.69;100226.47;104065;1279;109383;-78
2022/05/03 02:19:28;;;;;;;0.40;0.30;;;;;;;12.28;53.57;100229.95;103996;1279;140182;-77
2022/05/03 02:22:09;;;;;;;0.40;0.30;;;;;;;12.24;53.70;100231.70;104123;1279;95645;-76
2022/05/03 02:24:51;;;;;;;0.40;0.30;;;;;;;12.26;53.63;100232.14;104078;1279;110526;-77
2022/05/03 02:27:19;;;;;;;0.40;0.30;;;;;;;12.24;53.44;100227.05;104016;1280;140123;-79
2022/05/03 02:29:49;;;;;;;0.40;0.40;;;;;;;12.22;53.41;100226.07;103794;1279;109410;-78
2022/05/03 02:32:50;;;;;;;0.40;0.30;;;;;;;12.15;53.61;100228.09;104003;1279;140195;-74
2022/05/03 02:35:23;;;;;;;0.50;0.40;;;;;;;12.11;53.60;100228.79;103722;1280;95211;-74
2022/05/03 02:37:56;;;;;;;0.40;0.40;;;;;;;12.05;53.62;100230.58;103967;1279;140091;-80
2022/05/03 02:40:27;;;;;;;0.50;0.30;;;;;;;12.09;53.66;100231.34;104104;1279;97376;-73
2022/05/03 02:42:57;;;;;;;0.40;0.30;;;;;;;12.08;53.39;100230.84;103918;1279;140392;-74
2022/05/03 02:45:25;;;;;;;0.40;0.30;;;;;;;12.08;53.40;100229.76;104137;1279;95786;-73
2022/05/03 02:48:18;;;;;;;0.40;0.30;;;;;;;12.14;53.22;100227.95;104065;1279;95236;-73
2022/05/03 02:50:58;;;;;;;0.40;0.30;;;;;;;12.09;52.95;100232.23;104235;1279;139757;-76
2022/05/03 02:53:52;;;;;;;0.40;0.30;;;;;;;12.05;53.10;100232.71;104132;1279;98839;-74
2022/05/03 02:56:30;;;;;;;0.40;0.30;;;;;;;12.06;52.95;100231.96;104000;1279;141002;-74
2022/05/03 02:59:04;;;;;;;0.40;0.40;;;;;;;12.07;52.84;100233.55;104176;1279;95199;-77
2022/05/03 03:01:47;;;;;;;0.40;0.40;;;;;;;12.03;52.64;100229.92;104006;1279;139170;-73
2022/05/03 03:04:34;;;;;;;0.40;0.40;;;;;;;11.97;52.62;100232.62;104207;1279;109365;-85
2022/05/03 03:07:04;;;;;;;0.50;0.40;;;;;;;11.95;52.49;100228.42;104027;1279;141543;-73
2022/05/03 03:09:40;;;;;;;0.50;0.40;;;;;;;11.99;52.65;100235.23;104266;1279;108877;-74
2022/05/03 03:12:14;;;;;;;0.40;0.40;;;;;;;11.86;52.94;100231.73;104109;1279;95177;-75
2022/05/03 03:14:53;;;;;;;0.40;0.40;;;;;;;11.81;52.74;100231.19;103890;1279;140521;-76
2022/05/03 03:17:28;;;;;;;0.40;0.40;;;;;;;11.79;52.72;100234.80;104094;1279;109433;-74
2022/05/03 03:20:08;;;;;;;0.40;0.40;;;;;;;11.81;52.67;100235.63;103979;1279;139864;-80
2022/05/03 03:22:40;;;;;;;0.40;0.40;;;;;;;11.80;52.44;100240.12;104066;1279;109557;-77
2022/05/03 03:25:13;;;;;;;0.50;0.40;;;;;;;11.82;52.33;100239.67;103989;1279;140686;-79
2022/05/03 03:27:49;;;;;;;0.40;0.40;;;;;;;11.78;52.69;100239.32;104138;1279;95414;-74
2022/05/03 03:30:21;;;;;;;0.40;0.40;;;;;;;11.72;52.59;100243.23;104110;1279;109102;-74
2022/05/03 03:32:50;;;;;;;0.40;0.40;;;;;;;11.70;52.55;100242.23;103974;1281;139947;-75
2022/05/03 03:35:19;;;;;;;0.40;0.40;;;;;;;11.65;52.87;100240.81;103978;1281;109340;-76
2022/05/03 03:37:49;;;;;;;0.40;0.40;;;;;;;11.63;53.18;100241.60;103863;1281;140206;-79
2022/05/03 03:40:18;;;;;;;0.40;0.40;;;;;;;11.61;53.12;100246.45;104108;1279;95736;-74
2022/05/03 03:42:47;;;;;;;0.40;0.40;;;;;;;11.54;53.31;100244.71;104117;1279;109534;-77
2022/05/03 03:45:16;;;;;;;0.40;0.40;;;;;;;11.52;53.47;100242.64;103998;1279;142527;-74
2022/05/03 03:47:45;;;;;;;0.40;0.30;;;;;;;11.56;53.54;100247.86;104056;1279;108825;-78
2022/05/03 03:50:14;;;;;;;0.40;0.40;;;;;;;11.54;53.51;100247.02;103990;1279;138624;-73
2022/05/03 03:52:44;;;;;;;0.40;0.40;;;;;;;11.55;53.51;100245.39;104128;1279;95656;-74
2022/05/03 03:55:13;;;;;;;0.40;0.40;;;;;;;11.58;53.37;100240.85;104088;1279;139189;-75
2022/05/03 03:57:41;;;;;;;0.40;0.40;;;;;;;11.54;53.38;100240.26;104214;1279;99921;-75
2022/05/03 04:00:11;;;;;;;0.50;0.50;;;;;;;11.62;52.90;100243.91;104087;1279;109415;-76
2022/05/03 04:02:46;;;;;;;0.40;0.40;;;;;;;11.69;52.30;100241.40;104206;1278;140134;-82
2022/05/03 04:05:22;;;;;;;0.40;0.30;;;;;;;11.68;52.69;100243.02;104227;1279;95688;-74
2022/05/03 04:07:51;;;;;;;0.40;0.40;;;;;;;11.64;52.47;100246.86;104007;1279;140640;-77
2022/05/03 04:10:20;;;;;;;0.40;0.40;;;;;;;11.67;52.19;100245.33;104133;1279;99890;-77
2022/05/03 04:12:48;;;;;;;0.40;0.30;;;;;;;11.72;51.79;100246.08;103729;1281;143252;-74
2022/05/03 04:15:16;;;;;;;0.40;0.40;;;;;;;11.74;51.58;100251.02;104012;1279;140758;-74
2022/05/03 04:17:44;;;;;;;0.40;0.40;;;;;;;11.73;51.47;100251.93;104096;1279;95432;-77
2022/05/03 04:20:13;;;;;;;0.40;0.40;;;;;;;11.73;51.48;100258.31;104009;1279;140641;-74
2022/05/03 04:22:41;;;;;;;0.50;0.40;;;;;;;11.79;51.43;100258.48;104173;1279;98905;-78
2022/05/03 04:25:09;;;;;;;0.40;0.40;;;;;;;11.83;51.33;100263.15;104036;1279;140655;-76
2022/05/03 04:27:37;;;;;;;0.40;0.40;;;;;;;11.85;51.42;100261.29;104142;1279;95241;-75
2022/05/03 04:30:06;;;;;;;0.40;0.30;;;;;;;11.88;51.28;100266.86;104175;1279;95060;-80
2022/05/03 04:32:34;;;;;;;0.50;0.40;;;;;;;11.86;51.21;100263.94;104098;1279;139577;-83
2022/05/03 04:35:02;;;;;;;0.40;0.40;;;;;;;11.84;50.99;100264.37;104176;1279;100268;-81
2022/05/03 04:37:30;;;;;;;0.40;0.30;;;;;;;11.79;50.90;100267.73;104013;1279;139233;-76
2022/05/03 04:39:58;;;;;;;0.40;0.40;;;;;;;11.75;50.93;100269.98;104176;1279;95517;-76
2022/05/03 04:42:26;;;;;;;0.40;0.40;;;;;;;11.71;50.65;100270.84;104218;1279;95160;-78
2022/05/03 04:44:53;;;;;;;0.40;0.40;;;;;;;11.75;51.03;100271.06;104037;1279;139889;-74
2022/05/03 04:47:21;;;;;;;0.40;0.30;;;;;;;11.84;51.03;100273.23;104175;1279;100265;-75
2022/05/03 04:49:49;;;;;;;0.40;0.40;;;;;;;11.89;50.82;100277.02;104058;1279;140607;-81
2022/05/03 04:52:18;;;;;;;0.40;0.30;;;;;;;11.97;50.94;100279.77;104135;1279;95950;-74
2022/05/03 04:54:45;;;;;;;0.40;0.40;;;;;;;12.05;50.75;100285.55;104172;1279;96039;-76
2022/05/03 04:57:14;;;;;;;0.40;0.30;;;;;;;12.11;50.55;100287.15;104020;1279;140321;-74
2022/05/03 04:59:42;;;;;;;0.40;0.40;;;;;;;12.16;49.86;100291.26;104194;1279;100278;-73
2022/05/03 05:02:10;;;;;;;0.40;0.30;;;;;;;12.17;49.94;100294.95;104043;1279;140852;-76
2022/05/03 05:04:38;;;;;;;0.40;0.30;;;;;;;12.22;50.34;100291.91;104093;1279;96401;-73
2022/05/03 05:07:05;;;;;;;0.40;0.30;;;;;;;12.28;50.41;100292.09;104077;1279;139951;-77
2022/05/03 05:09:33;;;;;;;0.40;0.30;;;;;;;12.30;49.67;100292.34;104115;1279;109527;-78
2022/05/03 05:12:01;;;;;;;0.40;0.30;;;;;;;12.42;49.62;100292.11;104103;1279;99798;-76
2022/05/03 05:14:29;;;;;;;0.40;0.30;;;;;;;12.52;49.50;100288.89;104038;1279;140399;-78
2022/05/03 05:16:57;;;;;;;0.40;0.30;;;;;;;12.50;48.98;100289.68;104069;1279;95360;-73
2022/05/03 05:19:25;;;;;;;0.40;0.40;;;;;;;12.49;48.40;100294.17;104049;1279;142087;-80
2022/05/03 05:21:53;;;;;;;0.40;0.40;;;;;;;12.54;48.31;100289.19;104078;1279;110417;-76
2022/05/03 05:24:21;;;;;;;0.40;0.30;;;;;;;12.59;47.70;100289.20;104099;1279;100357;-76
2022/05/03 05:26:48;;;;;;;0.40;0.30;;;;;;;12.59;47.74;100292.38;103655;1280;139904;-75
2022/05/03 05:29:16;;;;;;;0.40;0.30;;;;;;;12.71;47.87;100289.45;104113;1279;95200;-82
2022/05/03 05:31:45;;;;;;;0.40;0.30;;;;;;;12.85;47.37;100287.52;104047;1279;141136;-74
2022/05/03 05:34:13;;;;;;;0.40;0.40;;;;;;;12.93;47.36;100288.30;104081;1279;109181;-75
2022/05/03 05:36:42;;;;;;;0.40;0.30;;;;;;;12.99;46.96;100285.56;104145;1279;100328;-75
2022/05/03 05:39:10;;;;;;;0.40;0.30;;;;;;;13.04;46.77;100282.89;104031;1279;139725;-74
2022/05/03 05:41:37;;;;;;;0.40;0.30;;;;;;;13.10;46.24;100283.39;104119;1279;95501;-74
2022/05/03 05:44:05;;;;;;;0.40;0.30;;;;;;;13.18;46.48;100284.48;104046;1279;140183;-77
2022/05/03 05:46:33;;;;;;;0.40;0.30;;;;;;;13.29;45.40;100288.34;104103;1279;110054;-73
2022/05/03 05:49:01;;;;;;;0.40;0.30;;;;;;;13.36;44.92;100289.67;104010;1280;140181;-77
2022/05/03 05:51:29;;;;;;;0.40;0.30;;;;;;;13.42;43.85;100290.35;104110;1279;109272;-74
2022/05/03 05:53:57;;;;;;;0.40;0.30;;;;;;;13.42;43.39;100290.17;104142;1280;95168;-76
2022/05/03 05:56:25;;;;;;;0.40;0.30;;;;;;;13.50;43.66;100293.79;103999;1279;139362;-80
2022/05/03 05:58:53;;;;;;;0.40;0.30;;;;;;;13.61;43.96;100292.29;104109;1279;108722;-74
2022/05/03 06:01:26;;;;;;;0.40;0.30;;;;;;;13.69;43.54;100292.83;103979;1279;139654;-79
2022/05/03 06:03:54;;;;;;;0.40;0.30;;;;;;;13.78;43.61;100292.13;103932;1281;109100;-77
2022/05/03 06:06:21;;;;;;;0.40;0.30;;;;;;;13.99;43.13;100297.48;104077;1279;95278;-78
2022/05/03 06:08:49;;;;;;;0.40;0.20;;;;;;;14.16;42.53;100295.35;103983;1280;139790;-79
2022/05/03 06:11:17;;;;;;;0.40;0.20;;;;;;;14.24;42.35;100299.65;104113;1279;110174;-80
2022/05/03 06:13:45;;;;;;;0.40;0.30;;;;;;;14.40;41.95;100301.30;104001;1279;140651;-76
2022/05/03 06:16:13;;;;;;;0.40;0.20;;;;;;;14.54;42.03;100302.08;104257;1279;107716;-77
2022/05/03 06:18:40;;;;;;;0.40;0.20;;;;;;;14.72;42.07;100306.17;104100;1279;95513;-78
2022/05/03 06:21:08;;;;;;;0.40;0.20;;;;;;;14.78;41.89;100304.64;104016;1279;139068;-74
2022/05/03 06:23:37;;;;;;;0.40;0.20;;;;;;;14.84;41.99;100306.50;104129;1281;108711;-76
2022/05/03 06:26:05;;;;;;;0.40;0.20;;;;;;;14.88;41.40;100305.06;104029;1281;140379;-76
2022/05/03 06:28:43;;;;;;;0.40;0.20;;;;;;;14.98;41.11;100308.55;104046;1280;109299;-72
2022/05/03 06:31:11;;;;;;;0.40;0.30;;;;;;;15.29;39.93;100306.38;104225;1279;139734;-77
2022/05/03 06:33:39;;;;;;;0.40;0.20;;;;;;;15.72;39.06;100302.90;104155;1279;95250;-74
2022/05/03 06:36:15;;;;;;;0.40;0.20;;;;;;;16.12;37.79;100307.04;104122;1280;109750;-76
2022/05/03 06:38:43;;;;;;;0.40;0.20;;;;;;;16.41;37.29;100300.91;104098;1279;140702;-84
2022/05/03 06:41:12;;;;;;;0.40;0.20;;;;;;;16.79;36.50;100300.14;104126;1279;109292;-83
2022/05/03 06:43:40;;;;;;;0.40;0.10;;;;;;;16.95;35.53;100300.39;103997;1280;140533;-82
2022/05/03 06:46:08;;;;;;;0.40;0.20;;;;;;;16.91;36.19;100304.20;104159;1279;95275;-74
2022/05/03 06:48:37;;;;;;;0.40;0.10;;;;;;;16.86;36.21;100305.13;104069;1279;110452;-74
2022/05/03 06:51:08;;;;;;;0.40;0.10;;;;;;;16.78;36.57;100302.73;104005;1281;138566;-76
2022/05/03 06:53:35;;;;;;;0.40;0.20;;;;;;;16.67;36.57;100305.95;104179;1280;109465;-75
2022/05/03 06:56:03;;;;;;;0.40;0.10;;;;;;;16.60;36.98;100306.73;104105;1279;140885;-77
2022/05/03 06:58:31;;;;;;;0.40;0.10;;;;;;;16.58;37.23;100304.14;104133;1281;95283;-74
2022/05/03 07:01:10;;;;;;;0.40;0.20;;;;;;;16.53;37.18;100303.10;104080;1279;138558;-78
2022/05/03 07:03:38;;;;;;;0.40;0.20;;;;;;;16.39;37.20;100302.80;104157;1281;98674;-74
2022/05/03 07:06:06;;;;;;;0.40;0.20;;;;;;;16.24;36.99;100306.39;104198;1281;108359;-76
2022/05/03 07:08:35;;;;;;;0.40;0.10;;;;;;;16.23;37.47;100308.97;104003;1279;139755;-73
2022/05/03 07:11:03;;;;;;;0.40;0.20;;;;;;;16.23;37.52;100310.08;104067;1281;95250;-71
2022/05/03 07:13:31;;;;;;;0.40;0.20;;;;;;;16.21;37.58;100305.17;103943;1277;140084;-74
2022/05/03 07:15:59;;;;;;;0.40;0.20;;;;;;;16.12;37.32;100311.84;104120;1281;99927;-74
2022/05/03 07:23:59;;;;;;;0.40;0.20;;;;;;;16.13;37.33;100314.35;104143;1281;95140;-74
2022/05/03 07:26:27;;;;;;;0.40;0.10;;;;;;;16.16;37.29;100311.67;104095;1281;138393;-74
2022/05/03 07:28:56;;;;;;;0.40;0.20;;;;;;;16.35;37.12;100309.66;104125;1280;99965;-75
2022/05/03 07:31:24;;;;;;;0.40;0.20;;;;;;;16.42;36.81;100314.45;103997;1279;140032;-73
2022/05/03 07:33:52;;;;;;;0.40;0.20;;;;;;;16.42;36.72;100317.89;104076;1281;95214;-74
2022/05/03 07:36:20;;;;;;;0.40;0.10;;;;;;;16.35;36.30;100317.68;104052;1281;95313;-77
2022/05/03 07:38:48;;;;;;;0.40;0.20;;;;;;;16.30;36.43;100318.33;103992;1281;139787;-73
2022/05/03 07:41:16;;;;;;;0.40;0.10;;;;;;;16.31;36.64;100322.56;104089;1281;99034;-74
2022/05/03 07:43:44;;;;;;;0.40;0.20;;;;;;;16.42;36.93;100321.77;103964;1281;138400;-84
2022/05/03 07:46:12;;;;;;;0.40;0.20;;;;;;;16.53;36.63;100322.33;104087;1281;95233;-73
2022/05/03 07:48:39;;;;;;;0.40;0.20;;;;;;;16.66;36.37;100323.05;104060;1281;95327;-73
2022/05/03 07:51:10;;;;;;;0.40;0.20;;;;;;;16.79;36.16;100328.46;103945;1281;140246;-78
2022/05/03 07:53:41;;;;;;;0.40;0.10;;;;;;;16.90;35.88;100327.58;104101;1281;99894;-79
2022/05/03 07:56:10;;;;;;;0.40;0.20;;;;;;;17.20;35.44;100327.54;103997;1280;139965;-74
2022/05/03 07:58:38;;;;;;;0.40;0.10;;;;;;;17.62;34.99;100322.14;104117;1280;96960;-76
2022/05/03 08:01:06;;;;;;;0.40;0.20;;;;;;;17.83;34.78;100325.07;104007;1281;139580;-77
2022/05/03 08:03:33;;;;;;;0.40;0.20;;;;;;;18.03;34.49;100325.59;104107;1279;109206;-73
2022/05/03 08:06:02;;;;;;;0.40;0.10;;;;;;;18.37;33.19;100324.87;104082;1281;99414;-74
2022/05/03 08:08:30;;;;;;;0.40;0.10;;;;;;;18.35;32.96;100329.08;104033;1281;139457;-74
2022/05/03 08:10:58;;;;;;;0.40;0.10;;;;;;;18.21;33.37;100321.48;104050;1279;95648;-75
2022/05/03 08:13:26;;;;;;;0.40;0.10;;;;;;;18.15;33.42;100325.96;103980;1280;140544;-76
2022/05/03 08:15:53;;;;;;;0.40;0.10;;;;;;;18.10;33.35;100328.63;104092;1279;110011;-76
2022/05/03 08:18:21;;;;;;;0.40;0.10;;;;;;;18.04;33.08;100334.50;104130;1279;100202;-79
2022/05/03 08:20:49;;;;;;;0.40;0.10;;;;;;;18.00;33.24;100336.56;104022;1281;139643;-73
2022/05/03 08:23:17;;;;;;;0.40;0.10;;;;;;;18.03;32.95;100337.42;104144;1281;95668;-79
2022/05/03 08:25:45;;;;;;;0.40;0.10;;;;;;;18.04;33.18;100333.80;104113;1281;139882;-74
2022/05/03 08:28:13;;;;;;;0.40;0.10;;;;;;;18.10;33.14;100330.23;104207;1278;111201;-74
2022/05/03 08:30:41;;;;;;;0.40;0.10;;;;;;;18.18;33.29;100333.17;104157;1278;100373;-77
2022/05/03 08:33:09;;;;;;;0.40;0.10;;;;;;;18.19;32.68;100335.63;104060;1278;140878;-74
2022/05/03 08:35:37;;;;;;;0.40;0.10;;;;;;;18.16;32.88;100338.11;104192;1278;96799;-73
2022/05/03 08:44:00;;;;;;;0.40;0.10;;;;;;;18.51;32.59;100337.32;103233;1286;140012;-75
2022/05/03 08:46:29;;;;;;;0.40;0.10;;;;;;;18.68;32.61;100340.79;103967;1278;109434;-78
2022/05/03 08:49:04;;;;;;;0.40;0.10;;;;;;;18.77;31.95;100339.88;104064;1278;140170;-79
2022/05/03 08:51:32;;;;;;;0.40;0.10;;;;;;;18.90;32.10;100334.96;104356;1277;95162;-73
2022/05/03 08:54:01;;;;;;;0.40;0.10;;;;;;;19.06;32.07;100336.52;104210;1277;110162;-73
2022/05/03 08:56:30;;;;;;;0.40;0.10;;;;;;;19.18;32.15;100339.66;103953;1278;141560;-78
2022/05/03 08:58:58;;;;;;;0.40;0.10;;;;;;;19.37;31.59;100334.69;104143;1277;107877;-78
2022/05/03 09:01:26;;;;;;;0.40;0.10;;;;;;;19.50;31.46;100333.71;103987;1277;138909;-75
2022/05/03 09:03:55;;;;;;;0.40;0.10;;;;;;;19.57;31.33;100336.49;104079;1277;95453;-77
2022/05/03 09:06:43;;;;;;;0.40;0.10;;;;;;;19.72;30.93;100327.08;103891;1278;110199;-74
2022/05/03 09:09:12;;;;;;;0.40;0.10;;;;;;;19.82;30.93;100328.92;103920;1281;141872;-75
2022/05/03 09:11:51;;;;;;;0.40;0.10;;;;;;;20.04;30.78;100322.27;104095;1278;109873;-79
2022/05/03 09:14:44;;;;;;;0.40;0.10;;;;;;;20.38;30.02;100315.80;103985;1278;142061;-74
2022/05/03 09:17:12;;;;;;;0.40;0.10;;;;;;;20.73;29.19;100316.13;104154;1279;95861;-84
2022/05/03 09:19:40;;;;;;;0.40;0.10;;;;;;;21.03;28.47;100315.09;104034;1278;140408;-75
2022/05/03 09:24:58;;;;;;;0.40;0.10;;;;;;;23.01;26.56;100309.63;104083;1277;109411;-74
2022/05/03 09:27:26;;;;;;;0.40;0.10;;;;;;;24.57;24.58;100298.75;103998;1278;141545;-77
2022/05/03 09:30:05;;;;;;;0.40;0.10;;;;;;;25.80;22.99;100304.77;104184;1278;95342;-74
2022/05/03 09:32:40;;;;;;;0.40;0.10;;;;;;;26.79;20.78;100309.02;104069;1278;140465;-75
2022/05/03 09:35:35;;;;;;;0.40;0.10;;;;;;;27.25;19.84;100315.72;104270;1278;97619;-73
2022/05/03 09:38:04;;;;;;;0.40;0.00;;;;;;;27.98;20.16;100313.50;104056;1279;139751;-75
2022/05/03 09:40:39;;;;;;;0.40;0.10;;;;;;;28.80;19.61;100300.89;104265;1277;95221;-78
2022/05/03 09:43:08;;;;;;;0.40;0.10;;;;;;;29.76;18.74;100300.67;104060;1277;140809;-74
2022/05/03 09:45:37;;;;;;;0.40;0.00;;;;;;;30.38;17.89;100292.83;104441;1279;110235;-75
2022/05/03 09:48:05;;;;;;;0.40;0.00;;;;;;;30.68;17.28;100297.27;104150;1278;99296;-78
2022/05/03 09:50:43;;;;;;;0.40;0.00;;;;;;;31.00;16.65;100295.44;104029;1279;139588;-75
2022/05/03 09:53:17;;;;;;;0.40;0.00;;;;;;;31.13;16.87;100296.47;104255;1279;95287;-76
2022/05/03 09:55:48;;;;;;;0.40;0.00;;;;;;;31.13;17.01;100292.44;104171;1277;139762;-77
2022/05/03 09:58:19;;;;;;;0.40;0.00;;;;;;;31.53;17.03;100294.63;104172;1279;108686;-79
2022/05/03 10:00:48;;;;;;;0.40;0.00;;;;;;;31.73;17.04;100293.52;104308;1279;99364;-79
2022/05/03 10:03:17;;;;;;;0.40;0.00;;;;;;;32.08;15.99;100297.77;104063;1279;140214;-81
2022/05/03 10:05:45;;;;;;;0.40;0.00;;;;;;;32.26;15.89;100295.25;104426;1278;95166;-79
2022/05/03 10:08:17;;;;;;;0.40;0.00;;;;;;;32.12;15.09;100297.31;104115;1279;138933;-77
2022/05/03 10:10:56;;;;;;;0.40;0.00;;;;;;;31.88;15.31;100299.71;104276;1279;110431;-76
2022/05/03 10:13:25;;;;;;;0.40;0.00;;;;;;;32.07;15.59;100299.16;104090;1279;138984;-77
2022/05/03 10:21:35;;;;;;;0.40;0.00;;;;;;;32.22;15.47;100292.59;104258;1279;138845;-74
2022/05/03 10:24:06;;;;;;;0.40;0.00;;;;;;;32.02;15.16;100295.17;104221;1279;110061;-72
2022/05/03 10:26:52;;;;;;;0.40;0.00;;;;;;;32.22;15.78;100292.24;105005;1279;141170;-75
2022/05/03 10:29:21;;;;;;;0.40;0.00;;;;;;;32.39;15.17;100291.56;104230;1279;109350;-74
2022/05/03 10:31:53;;;;;;;0.40;0.00;;;;;;;32.68;15.35;100292.60;104245;1279;139135;-78
2022/05/03 10:34:40;;;;;;;0.40;0.00;;;;;;;33.07;14.90;100293.52;105474;1278;95475;-76
2022/05/03 10:37:36;;;;;;;0.40;0.00;;;;;;;33.19;14.69;100293.19;104220;1278;108272;-76
2022/05/03 10:40:09;;;;;;;0.40;0.00;;;;;;;33.23;14.59;100291.42;103938;1279;100034;-76
2022/05/03 10:42:38;;;;;;;0.40;0.00;;;;;;;33.09;14.63;100287.58;104692;1278;108831;-79
2022/05/03 10:45:14;;;;;;;0.40;0.00;;;;;;;33.02;14.42;100298.00;104307;1281;139644;-80
2022/05/03 10:47:55;;;;;;;0.40;0.00;;;;;;;32.98;14.37;100298.17;104218;1279;95308;-80
2022/05/03 10:50:27;;;;;;;0.40;0.00;;;;;;;33.07;14.21;100288.39;104038;1279;139079;-76
2022/05/03 10:52:55;;;;;;;0.40;0.00;;;;;;;32.68;14.80;100292.80;104215;1279;98473;-77
2022/05/03 10:55:27;;;;;;;0.40;0.00;;;;;;;31.29;16.15;100295.16;104249;1278;109861;-79
2022/05/03 10:58:27;;;;;;;0.40;0.00;;;;;;;30.14;17.09;100293.51;104171;1278;141260;-77
2022/05/03 11:01:02;;;;;;;0.40;0.00;;;;;;;28.94;17.92;100292.77;104183;1278;95562;-79
2022/05/03 11:03:36;;;;;;;0.40;0.00;;;;;;;28.20;18.84;100294.85;104228;1279;139841;-87
2022/05/03 11:06:17;;;;;;;0.40;0.00;;;;;;;27.51;19.45;100294.99;104244;1279;99906;-76
2022/05/03 11:11:43;;;;;;;0.40;0.00;;;;;;;25.76;20.96;100300.43;104194;1278;95262;-79
2022/05/03 11:14:18;;;;;;;0.40;0.00;;;;;;;25.02;22.05;100298.65;104260;1278;140130;-76
2022/05/03 11:17:06;;;;;;;0.40;0.00;;;;;;;24.41;22.97;100302.69;104286;1278;110165;-79
2022/05/03 11:19:37;;;;;;;0.40;0.00;;;;;;;24.14;23.50;100293.41;104368;1278;99059;-74
2022/05/03 11:22:13;;;;;;;0.40;0.00;;;;;;;23.87;23.83;100295.68;104127;1279;138285;-76
2022/05/03 11:24:42;;;;;;;0.40;0.00;;;;;;;23.55;24.32;100297.34;104301;1279;95159;-73
2022/05/03 11:27:11;;;;;;;0.40;0.00;;;;;;;23.12;24.12;100301.39;104309;1279;140265;-76
2022/05/03 11:29:48;;;;;;;0.40;0.00;;;;;;;22.86;24.68;100302.36;104374;1279;109742;-77
2022/05/03 11:32:27;;;;;;;0.40;0.00;;;;;;;22.55;25.38;100297.39;104131;1279;141034;-77
2022/05/03 11:35:03;;;;;;;0.40;0.00;;;;;;;22.41;25.98;100293.93;104164;1278;108185;-76
2022/05/03 11:37:31;;;;;;;0.40;0.10;;;;;;;22.19;26.43;100295.06;104241;1278;95250;-77
2022/05/03 11:40:08;;;;;;;0.40;0.10;;;;;;;22.09;26.92;100292.91;103827;1279;139176;-75
2022/05/03 11:42:40;;;;;;;0.40;0.10;;;;;;;22.11;26.90;100290.93;104181;1279;109934;-75
2022/05/03 11:45:09;;;;;;;0.40;0.10;;;;;;;21.98;26.59;100290.12;104081;1279;141245;-73
2022/05/03 11:47:42;;;;;;;0.40;0.10;;;;;;;21.80;27.46;100293.27;104399;1278;106523;-74
2022/05/03 11:55:58;;;;;;;0.40;0.10;;;;;;;21.64;27.56;100295.71;103971;1279;140645;-75
2022/05/03 11:56:07;;;;;;;0.40;0.10;;;;;;;21.37;27.04;100288.14;103968;1278;138522;-74
2022/05/03 11:58:36;;;;;;;0.40;0.10;;;;;;;21.21;26.86;100284.96;104072;1279;99848;-75
2022/05/03 12:01:12;;;;;;;0.40;0.10;;;;;;;21.05;27.61;100288.59;104216;1279;109433;-81
2022/05/03 12:03:59;;;;;;;0.40;0.10;;;;;;;20.94;28.22;100285.61;104072;1281;139468;-75
2022/05/03 12:06:43;;;;;;;0.40;0.10;;;;;;;20.88;28.38;100293.29;104180;1279;95488;-80